createdAt,value
2019-03-11T00:00:31.643Z,99.90
2019-03-11T00:03:02.152Z,99.90
2019-03-11T00:05:33.684Z,99.90
2019-03-11T00:08:04.294Z,99.90
2019-03-11T00:10:34.789Z,99.90
2019-03-11T00:13:05.579Z,99.90
2019-03-11T00:15:36.062Z,99.90
2019-03-11T00:18:07.774Z,99.90
2019-03-11T00:20:38.344Z,99.90
2019-03-11T00:23:08.831Z,99.90
2019-03-11T00:25:39.333Z,99.90
2019-03-11T00:28:09.863Z,99.90
2019-03-11T00:30:40.454Z,99.90
2019-03-11T00:33:11.032Z,99.90
2019-03-11T00:35:41.565Z,99.90
2019-03-11T00:38:13.127Z,99.90
2019-03-11T00:40:43.641Z,99.90
2019-03-11T00:43:16.982Z,99.90
2019-03-11T00:45:47.434Z,99.90
2019-03-11T00:48:17.861Z,99.90
2019-03-11T00:50:48.399Z,99.90
2019-03-11T00:53:19.076Z,99.90
2019-03-11T00:55:49.681Z,99.90
2019-03-11T00:58:21.196Z,99.90
2019-03-11T01:00:51.784Z,99.90
2019-03-11T01:03:22.349Z,99.90
2019-03-11T01:05:52.930Z,99.90
2019-03-11T01:08:23.384Z,99.90
2019-03-11T01:10:53.865Z,99.90
2019-03-11T01:13:24.446Z,99.90
2019-03-11T01:15:54.944Z,99.90
2019-03-11T01:18:25.773Z,99.90
2019-03-11T01:20:56.417Z,99.90
2019-03-11T01:23:27.035Z,99.90
2019-03-11T01:25:57.663Z,99.90
2019-03-11T01:28:29.126Z,99.90
2019-03-11T01:30:59.591Z,99.90
2019-03-11T01:33:30.074Z,99.90
2019-03-11T01:36:00.639Z,99.90
2019-03-11T01:38:31.129Z,99.90
2019-03-11T01:41:01.659Z,99.90
2019-03-11T01:43:32.013Z,99.90
2019-03-11T01:46:02.513Z,99.90
2019-03-11T01:48:33.050Z,99.90
2019-03-11T01:51:03.504Z,99.90
2019-03-11T01:53:33.907Z,99.90
2019-03-11T01:56:04.367Z,99.90
2019-03-11T01:58:34.942Z,99.90
2019-03-11T02:01:05.514Z,99.90
2019-03-11T02:03:36.096Z,99.90
2019-03-11T02:06:06.719Z,99.90
2019-03-11T02:08:37.167Z,99.90
2019-03-11T02:11:07.697Z,99.90
2019-03-11T02:13:38.191Z,99.90
2019-03-11T02:16:08.731Z,99.90
2019-03-11T02:18:39.253Z,99.90
2019-03-11T02:21:09.758Z,99.90
2019-03-11T02:23:41.288Z,99.90
2019-03-11T02:26:11.731Z,99.90
2019-03-11T02:28:42.227Z,99.90
2019-03-11T02:31:12.866Z,99.90
2019-03-11T02:33:44.503Z,99.90
2019-03-11T02:36:15.150Z,99.90
2019-03-11T02:38:45.788Z,99.90
2019-03-11T02:41:16.294Z,99.90
2019-03-11T02:43:46.817Z,99.90
2019-03-11T02:46:17.278Z,99.90
2019-03-11T02:48:47.785Z,99.90
2019-03-11T02:51:18.247Z,99.90
2019-03-11T02:53:48.647Z,99.90
2019-03-11T02:56:20.861Z,99.90
2019-03-11T02:58:51.363Z,99.90
2019-03-11T03:01:40.784Z,99.90
2019-03-11T03:04:16.053Z,99.90
2019-03-11T03:06:46.440Z,99.90
2019-03-11T03:09:16.900Z,99.90
2019-03-11T03:11:47.335Z,99.90
2019-03-11T03:14:17.820Z,99.90
2019-03-11T03:16:48.393Z,99.90
2019-03-11T03:19:18.832Z,99.90
2019-03-11T03:21:49.272Z,99.90
2019-03-11T03:24:19.711Z,99.90
2019-03-11T03:26:50.191Z,99.90
2019-03-11T03:29:20.934Z,99.90
2019-03-11T03:31:51.293Z,99.90
2019-03-11T03:34:21.757Z,99.90
2019-03-11T03:36:52.196Z,99.90
2019-03-11T03:39:22.848Z,99.90
2019-03-11T03:41:53.374Z,99.90
2019-03-11T03:44:23.892Z,99.90
2019-03-11T03:46:54.375Z,99.90
2019-03-11T03:49:24.959Z,99.90
2019-03-11T03:51:55.469Z,99.90
2019-03-11T03:54:25.935Z,99.90
2019-03-11T03:56:56.619Z,99.90
2019-03-11T03:59:27.474Z,99.90
2019-03-11T04:01:57.911Z,99.90
2019-03-11T04:04:28.329Z,99.90
2019-03-11T04:06:58.929Z,99.90
2019-03-11T04:09:29.388Z,99.90
2019-03-11T04:11:59.876Z,99.90
2019-03-11T04:14:30.344Z,99.90
2019-03-11T04:17:00.932Z,99.90
2019-03-11T04:19:31.422Z,99.90
2019-03-11T04:22:02.170Z,99.90
2019-03-11T04:24:32.698Z,99.90
2019-03-11T04:27:09.128Z,99.90
2019-03-11T04:29:39.544Z,99.90
2019-03-11T04:32:10.094Z,99.90
2019-03-11T04:34:40.805Z,99.90
2019-03-11T04:37:11.451Z,99.90
2019-03-11T04:39:42.041Z,99.90
2019-03-11T04:42:12.815Z,99.90
2019-03-11T04:44:45.560Z,99.90
2019-03-11T04:47:16.154Z,99.90
2019-03-11T04:49:46.564Z,99.90
2019-03-11T04:52:17.194Z,99.90
2019-03-11T04:54:47.891Z,99.90
2019-03-11T04:57:19.628Z,99.90
2019-03-11T04:59:50.203Z,99.90
2019-03-11T05:02:20.708Z,99.90
2019-03-11T05:04:51.224Z,99.90
2019-03-11T05:07:21.690Z,99.90
2019-03-11T05:09:52.207Z,99.90
2019-03-11T05:12:22.772Z,99.90
2019-03-11T05:14:53.222Z,99.90
2019-03-11T05:17:23.702Z,99.90
2019-03-11T05:19:55.627Z,99.90
2019-03-11T05:22:26.275Z,99.90
2019-03-11T05:24:56.682Z,99.90
2019-03-11T05:27:28.216Z,99.90
2019-03-11T05:29:58.780Z,99.90
2019-03-11T05:32:29.556Z,99.90
2019-03-11T05:35:00.178Z,99.90
2019-03-11T05:37:30.791Z,99.90
2019-03-11T05:40:01.310Z,99.90
2019-03-11T05:42:32.282Z,99.90
2019-03-11T05:45:02.794Z,99.90
2019-03-11T05:47:33.442Z,99.90
2019-03-11T05:50:04.459Z,99.90
2019-03-11T05:52:35.101Z,99.90
2019-03-11T05:55:06.144Z,99.90
2019-03-11T05:57:36.728Z,99.90
2019-03-11T06:00:10.788Z,99.90
2019-03-11T06:02:41.238Z,99.90
2019-03-11T06:05:12.264Z,99.90
2019-03-11T06:07:42.767Z,99.90
2019-03-11T06:10:13.819Z,99.90
2019-03-11T06:12:44.668Z,99.90
2019-03-11T06:15:15.449Z,99.90
2019-03-11T06:17:46.312Z,99.90
2019-03-11T06:20:36.518Z,99.90
2019-03-11T06:23:08.746Z,99.90
2019-03-11T06:25:39.420Z,99.90
2019-03-11T06:28:10.131Z,99.90
2019-03-11T06:30:43.058Z,99.90
2019-03-11T06:33:13.837Z,99.90
2019-03-11T06:35:44.487Z,99.90
2019-03-11T06:38:15.723Z,99.90
2019-03-11T06:40:46.384Z,99.90
2019-03-11T06:43:16.900Z,99.90
2019-03-11T06:45:47.546Z,99.90
2019-03-11T06:48:18.256Z,99.90
2019-03-11T06:50:48.806Z,99.90
2019-03-11T06:53:19.403Z,99.90
2019-03-11T06:55:49.943Z,99.90
2019-03-11T06:58:21.484Z,99.90
2019-03-11T07:00:52.558Z,99.90
2019-03-11T07:03:24.186Z,99.90
2019-03-11T07:05:54.838Z,99.90
2019-03-11T07:08:25.397Z,99.90
2019-03-11T07:10:56.002Z,99.90
2019-03-11T07:13:26.706Z,99.90
2019-03-11T07:15:57.237Z,99.90
2019-03-11T07:18:27.758Z,99.90
2019-03-11T07:20:58.435Z,99.90
2019-03-11T07:23:28.860Z,99.90
2019-03-11T07:25:59.355Z,99.80
2019-03-11T07:28:29.758Z,99.50
2019-03-11T07:31:00.443Z,98.10
2019-03-11T07:33:31.014Z,97.30
2019-03-11T07:36:01.707Z,97.60
2019-03-11T07:38:32.239Z,98.00
2019-03-11T07:41:02.946Z,97.60
2019-03-11T07:43:33.391Z,98.50
2019-03-11T07:46:03.980Z,97.10
2019-03-11T07:48:34.615Z,97.70
2019-03-11T07:51:05.248Z,98.10
2019-03-11T07:53:35.927Z,98.10
2019-03-11T07:56:06.476Z,98.40
2019-03-11T07:58:37.027Z,97.60
2019-03-11T08:01:07.713Z,97.60
2019-03-11T08:03:38.307Z,98.00
2019-03-11T08:06:18.126Z,96.30
2019-03-11T08:08:40.929Z,97.50
2019-03-11T08:11:11.463Z,97.60
2019-03-11T08:13:42.356Z,95.60
2019-03-11T08:16:13.082Z,94.50
2019-03-11T08:18:43.626Z,94.90
2019-03-11T08:21:14.260Z,95.20
2019-03-11T08:23:44.875Z,95.00
2019-03-11T08:26:15.592Z,96.80
2019-03-11T08:28:46.137Z,93.90
2019-03-11T08:31:16.607Z,92.60
2019-03-11T08:33:47.499Z,92.80
2019-03-11T08:36:18.143Z,93.50
2019-03-11T08:38:48.718Z,92.40
2019-03-11T08:41:19.264Z,93.00
2019-03-11T08:43:49.798Z,92.60
2019-03-11T08:46:20.384Z,91.10
2019-03-11T08:48:50.843Z,91.00
2019-03-11T08:51:21.554Z,85.10
2019-03-11T08:53:52.131Z,83.30
2019-03-11T08:56:24.086Z,82.00
2019-03-11T08:58:58.310Z,80.10
2019-03-11T09:01:28.683Z,80.80
2019-03-11T09:03:59.196Z,80.90
2019-03-11T09:06:29.666Z,81.40
2019-03-11T09:09:00.114Z,85.00
2019-03-11T09:11:30.613Z,85.00
2019-03-11T09:14:01.404Z,86.80
2019-03-11T09:16:31.927Z,85.50
2019-03-11T09:19:02.428Z,79.60
2019-03-11T09:21:33.118Z,80.10
2019-03-11T09:24:03.803Z,82.00
2019-03-11T09:26:34.278Z,82.90
2019-03-11T09:29:04.937Z,81.30
2019-03-11T09:31:36.432Z,82.90
2019-03-11T09:34:08.756Z,82.20
2019-03-11T09:36:39.310Z,84.90
2019-03-11T09:39:11.768Z,87.00
2019-03-11T09:41:42.452Z,86.70
2019-03-11T09:44:12.985Z,86.40
2019-03-11T09:46:44.033Z,86.40
2019-03-11T09:49:14.675Z,84.70
2019-03-11T09:51:45.172Z,83.00
2019-03-11T09:54:15.734Z,81.90
2019-03-11T09:56:46.299Z,81.30
2019-03-11T09:59:16.888Z,80.80
2019-03-11T10:01:47.552Z,82.40
2019-03-11T10:04:18.324Z,84.60
2019-03-11T10:06:49.871Z,83.90
2019-03-11T10:09:20.532Z,80.90
2019-03-11T10:11:51.061Z,79.50
2019-03-11T10:14:21.624Z,76.00
2019-03-11T10:16:52.238Z,79.60
2019-03-11T10:19:22.932Z,76.70
2019-03-11T10:21:53.664Z,78.10
2019-03-11T10:24:24.125Z,79.40
2019-03-11T10:26:54.555Z,80.20
2019-03-11T10:29:25.182Z,79.20
2019-03-11T10:31:55.818Z,79.30
2019-03-11T10:34:26.369Z,75.90
2019-03-11T10:36:56.874Z,74.00
2019-03-11T10:39:27.446Z,75.10
2019-03-11T10:41:57.836Z,74.40
2019-03-11T10:44:28.398Z,75.90
2019-03-11T10:46:58.809Z,78.80
2019-03-11T10:49:30.335Z,75.80
2019-03-11T10:52:00.734Z,76.50
2019-03-11T10:54:31.265Z,71.80
2019-03-11T10:57:01.960Z,71.40
2019-03-11T10:59:32.674Z,74.20
2019-03-11T11:02:03.104Z,73.00
2019-03-11T11:04:33.594Z,75.10
2019-03-11T11:07:04.337Z,73.00
2019-03-11T11:09:34.792Z,73.20
2019-03-11T11:12:05.370Z,71.20
2019-03-11T11:14:35.850Z,67.70
2019-03-11T11:17:06.420Z,69.40
2019-03-11T11:19:36.917Z,70.10
2019-03-11T11:22:07.424Z,71.80
2019-03-11T11:24:38.090Z,70.10
2019-03-11T11:27:09.864Z,70.50
2019-03-11T11:29:40.279Z,68.60
2019-03-11T11:32:10.922Z,70.10
2019-03-11T11:34:41.466Z,69.70
2019-03-11T11:37:11.867Z,69.60
2019-03-11T11:39:42.351Z,67.80
2019-03-11T11:42:12.779Z,69.20
2019-03-11T11:44:43.311Z,67.00
2019-03-11T11:47:13.838Z,65.60
2019-03-11T11:49:44.332Z,61.00
2019-03-11T11:52:14.894Z,61.60
2019-03-11T11:54:45.436Z,61.90
2019-03-11T11:57:16.962Z,63.80
2019-03-11T11:59:53.993Z,65.00
2019-03-11T12:02:22.251Z,64.70
2019-03-11T12:04:52.874Z,65.70
2019-03-11T12:07:25.958Z,67.90
2019-03-11T12:09:56.552Z,68.80
2019-03-11T12:12:28.330Z,69.50
2019-03-11T12:14:58.868Z,68.00
2019-03-11T12:17:29.478Z,67.70
2019-03-11T12:20:01.345Z,67.30
2019-03-11T12:22:32.082Z,67.10
2019-03-11T12:25:05.539Z,64.00
2019-03-11T12:27:36.182Z,64.60
2019-03-11T12:30:09.398Z,65.40
2019-03-11T12:32:40.194Z,67.50
2019-03-11T12:35:12.081Z,62.80
2019-03-11T12:37:42.671Z,58.80
2019-03-11T12:40:14.801Z,62.80
2019-03-11T12:42:45.577Z,59.90
2019-03-11T12:45:16.391Z,60.00
2019-03-11T12:47:47.176Z,59.00
2019-03-11T12:50:18.801Z,58.30
2019-03-11T12:52:49.439Z,60.90
2019-03-11T12:55:21.308Z,61.90
2019-03-11T12:57:53.514Z,60.60
2019-03-11T13:00:24.298Z,60.30
2019-03-11T13:02:55.065Z,59.80
2019-03-11T13:05:26.727Z,59.30
2019-03-11T13:07:57.169Z,60.00
2019-03-11T13:10:27.675Z,59.50
2019-03-11T13:12:58.446Z,62.10
2019-03-11T13:15:29.398Z,61.70
2019-03-11T13:18:29.216Z,57.30
2019-03-11T13:21:01.369Z,57.40
2019-03-11T13:23:32.253Z,60.80
2019-03-11T13:26:02.707Z,61.90
2019-03-11T13:28:33.264Z,62.00
2019-03-11T13:31:06.364Z,60.60
2019-03-11T13:33:37.532Z,60.60
2019-03-11T13:36:09.013Z,62.00
2019-03-11T13:38:39.523Z,62.30
2019-03-11T13:41:10.113Z,61.60
2019-03-11T13:43:40.753Z,60.10
2019-03-11T13:46:11.156Z,60.80
2019-03-11T13:48:41.838Z,61.50
2019-03-11T13:51:12.324Z,60.40
2019-03-11T13:53:42.992Z,60.00
2019-03-11T13:56:13.610Z,58.80
2019-03-11T13:58:44.219Z,58.60
2019-03-11T14:01:14.914Z,58.80
2019-03-11T14:03:45.502Z,54.40
2019-03-11T14:06:16.213Z,54.80
2019-03-11T14:08:47.013Z,54.90
2019-03-11T14:11:17.684Z,54.60
2019-03-11T14:13:48.397Z,54.70
2019-03-11T14:16:19.397Z,51.80
2019-03-11T14:18:50.164Z,52.00
2019-03-11T14:21:25.902Z,54.10
2019-03-11T14:23:55.433Z,52.80
2019-03-11T14:26:25.964Z,54.60
2019-03-11T14:28:56.436Z,55.90
2019-03-11T14:31:27.064Z,56.20
2019-03-11T14:33:57.694Z,57.20
2019-03-11T14:36:28.336Z,56.70
2019-03-11T14:38:59.089Z,58.20
2019-03-11T14:41:30.739Z,60.00
2019-03-11T14:44:01.256Z,58.00
2019-03-11T14:46:31.927Z,58.70
2019-03-11T14:49:02.482Z,57.40
2019-03-11T14:51:33.234Z,58.80
2019-03-11T14:54:03.882Z,59.20
2019-03-11T14:56:34.664Z,60.00
2019-03-11T14:59:05.371Z,60.20
2019-03-11T15:01:35.876Z,59.70
2019-03-11T15:04:06.633Z,59.40
2019-03-11T15:06:37.433Z,59.00
2019-03-11T15:09:08.295Z,58.00
2019-03-11T15:11:39.622Z,57.60
2019-03-11T15:14:10.362Z,57.10
2019-03-11T15:16:43.730Z,58.10
2019-03-11T15:19:14.456Z,58.30
2019-03-11T15:21:45.073Z,59.60
2019-03-11T15:24:15.798Z,59.10
2019-03-11T15:26:46.650Z,60.00
2019-03-11T15:29:17.873Z,60.30
2019-03-11T15:31:48.581Z,61.70
2019-03-11T15:34:19.505Z,62.60
2019-03-11T15:36:50.439Z,63.30
2019-03-11T15:39:21.010Z,62.90
2019-03-11T15:41:51.637Z,64.00
2019-03-11T15:44:23.870Z,64.60
2019-03-11T15:46:56.448Z,64.50
2019-03-11T15:49:26.910Z,64.20
2019-03-11T15:51:57.493Z,64.00
2019-03-11T15:54:28.121Z,64.10
2019-03-11T15:56:58.610Z,65.10
2019-03-11T15:59:29.376Z,65.70
2019-03-11T16:02:00.076Z,67.00
2019-03-11T16:04:30.731Z,67.60
2019-03-11T16:07:01.188Z,68.80
2019-03-11T16:09:31.758Z,69.90
2019-03-11T16:12:02.259Z,71.20
2019-03-11T16:14:32.883Z,72.00
2019-03-11T16:17:03.698Z,71.90
2019-03-11T16:19:34.741Z,73.60
2019-03-11T16:22:05.467Z,74.40
2019-03-11T16:24:36.123Z,74.70
2019-03-11T16:27:06.626Z,75.40
2019-03-11T16:29:37.304Z,76.50
2019-03-11T16:32:07.999Z,78.20
2019-03-11T16:34:38.663Z,78.20
2019-03-11T16:37:09.322Z,79.40
2019-03-11T16:39:40.103Z,80.00
2019-03-11T16:42:11.816Z,80.70
2019-03-11T16:44:42.480Z,81.30
2019-03-11T16:47:13.385Z,82.40
2019-03-11T16:49:44.273Z,82.70
2019-03-11T16:52:14.878Z,83.60
2019-03-11T16:54:45.464Z,83.90
2019-03-11T16:57:16.275Z,85.30
2019-03-11T16:59:47.024Z,85.60
2019-03-11T17:02:18.025Z,86.10
2019-03-11T17:04:48.890Z,86.30
2019-03-11T17:07:19.696Z,86.90
2019-03-11T17:09:50.595Z,87.10
2019-03-11T17:12:22.388Z,87.30
2019-03-11T17:14:53.219Z,87.80
2019-03-11T17:17:24.039Z,88.80
2019-03-11T17:19:54.883Z,88.80
2019-03-11T17:22:25.660Z,89.60
2019-03-11T17:24:56.314Z,90.00
2019-03-11T17:27:27.015Z,90.10
2019-03-11T17:29:58.844Z,90.40
2019-03-11T17:32:29.767Z,90.60
2019-03-11T17:35:00.439Z,90.80
2019-03-11T17:37:31.177Z,91.10
2019-03-11T17:40:01.936Z,91.10
2019-03-11T17:42:34.991Z,91.20
2019-03-11T17:45:06.713Z,91.60
2019-03-11T17:47:40.601Z,91.70
2019-03-11T17:50:14.906Z,91.90
2019-03-11T17:52:45.628Z,92.00
2019-03-11T17:55:16.788Z,92.60
2019-03-11T17:57:47.800Z,92.80
2019-03-11T18:00:25.075Z,93.00
2019-03-11T18:02:55.040Z,93.20
2019-03-11T18:05:25.957Z,93.50
2019-03-11T18:07:56.794Z,93.60
2019-03-11T18:10:27.494Z,93.60
2019-03-11T18:12:58.184Z,93.70
2019-03-11T18:15:28.975Z,94.10
2019-03-11T18:17:59.735Z,94.40
2019-03-11T18:20:30.352Z,95.10
2019-03-11T18:23:04.264Z,95.50
2019-03-11T18:25:35.325Z,95.80
2019-03-11T18:28:07.035Z,96.20
2019-03-11T18:30:37.987Z,96.60
2019-03-11T18:33:08.629Z,96.80
2019-03-11T18:35:41.178Z,97.30
2019-03-11T18:38:11.738Z,97.70
2019-03-11T18:40:42.421Z,97.90
2019-03-11T18:43:20.513Z,98.20
2019-03-11T18:45:45.709Z,98.60
2019-03-11T18:48:16.366Z,98.80
2019-03-11T18:50:47.137Z,99.30
2019-03-11T18:53:19.439Z,99.60
2019-03-11T18:55:50.945Z,99.90
2019-03-11T18:58:21.934Z,99.90
2019-03-11T19:00:52.737Z,99.90
2019-03-11T19:03:23.442Z,99.90
2019-03-11T19:06:03.884Z,99.90
2019-03-11T19:08:35.046Z,99.90
2019-03-11T19:11:11.913Z,99.90
2019-03-11T19:13:45.501Z,99.90
2019-03-11T19:16:18.347Z,99.90
2019-03-11T19:18:51.816Z,99.90
2019-03-11T19:21:24.199Z,99.90
2019-03-11T19:23:54.914Z,99.90
2019-03-11T19:26:25.987Z,99.90
2019-03-11T19:28:59.660Z,99.90
2019-03-11T19:31:30.604Z,99.90
2019-03-11T19:34:01.428Z,99.90
2019-03-11T19:36:35.382Z,99.90
2019-03-11T19:39:10.330Z,99.90
2019-03-11T19:41:41.340Z,99.90
2019-03-11T19:44:12.285Z,99.90
2019-03-11T19:46:46.153Z,99.90
2019-03-11T19:49:20.448Z,99.90
2019-03-11T19:51:51.418Z,99.90
2019-03-11T19:54:22.804Z,99.90
2019-03-11T19:56:54.174Z,99.90
2019-03-11T19:59:24.959Z,99.90
2019-03-11T20:01:59.053Z,99.90
2019-03-11T20:04:33.156Z,99.90
2019-03-11T20:07:05.674Z,99.90
2019-03-11T20:09:37.860Z,99.90
2019-03-11T20:12:09.644Z,99.90
2019-03-11T20:14:40.447Z,99.90
2019-03-11T20:17:11.312Z,99.90
2019-03-11T20:19:42.280Z,99.90
2019-03-11T20:22:13.744Z,99.90
2019-03-11T20:24:44.729Z,99.90
2019-03-11T20:27:15.790Z,99.90
2019-03-11T20:29:46.800Z,99.90
2019-03-11T20:32:17.744Z,99.90
2019-03-11T20:34:48.466Z,99.90
2019-03-11T20:37:23.736Z,99.90
2019-03-11T20:39:54.659Z,99.90
2019-03-11T20:42:25.964Z,99.90
2019-03-11T20:44:58.460Z,99.90
2019-03-11T20:47:30.765Z,99.90
2019-03-11T20:50:01.468Z,99.90
2019-03-11T20:52:33.454Z,99.90
2019-03-11T20:55:04.282Z,99.90
2019-03-11T20:57:35.011Z,99.90
2019-03-11T21:00:07.514Z,99.90
2019-03-11T21:02:38.434Z,99.90
2019-03-11T21:05:09.640Z,99.90
2019-03-11T21:07:40.730Z,99.90
2019-03-11T21:10:13.791Z,99.90
2019-03-11T21:12:44.617Z,99.90
2019-03-11T21:15:15.854Z,99.90
2019-03-11T21:17:46.977Z,99.90
2019-03-11T21:20:17.836Z,99.90
2019-03-11T21:22:50.156Z,99.90
2019-03-11T21:25:20.894Z,99.90
2019-03-11T21:27:54.237Z,99.90
2019-03-11T21:30:28.689Z,99.90
2019-03-11T21:33:00.878Z,99.90
2019-03-11T21:35:31.767Z,99.90
2019-03-11T21:38:02.577Z,99.90
2019-03-11T21:40:33.355Z,99.90
2019-03-11T21:43:03.992Z,99.90
2019-03-11T21:45:35.008Z,99.90
2019-03-11T21:48:05.905Z,99.90
2019-03-11T21:50:36.737Z,99.90
2019-03-11T21:53:07.706Z,99.90
2019-03-11T21:55:38.307Z,99.90
2019-03-11T21:58:13.459Z,99.90
2019-03-11T22:00:43.423Z,99.90
2019-03-11T22:03:13.939Z,99.90
2019-03-11T22:05:44.543Z,99.90
2019-03-11T22:08:14.931Z,99.90
2019-03-11T22:10:45.432Z,99.90
2019-03-11T22:13:16.098Z,99.90
2019-03-11T22:15:46.720Z,99.90
2019-03-11T22:18:17.211Z,99.90
2019-03-11T22:20:47.654Z,99.90
2019-03-11T22:23:18.095Z,99.90
2019-03-11T22:25:48.702Z,99.90
2019-03-11T22:28:19.357Z,99.90
2019-03-11T22:30:49.972Z,99.90
2019-03-11T22:33:20.611Z,99.90
2019-03-11T22:35:51.103Z,99.90
2019-03-11T22:38:21.670Z,99.90
2019-03-11T22:40:52.344Z,99.90
2019-03-11T22:43:22.944Z,99.90
2019-03-11T22:45:53.615Z,99.90
2019-03-11T22:48:24.192Z,99.90
2019-03-11T22:50:54.745Z,99.90
2019-03-11T22:53:25.195Z,99.90
2019-03-11T22:55:55.763Z,99.90
2019-03-11T22:58:26.158Z,99.90
2019-03-11T23:01:00.685Z,99.90
2019-03-11T23:03:32.686Z,99.90
2019-03-11T23:06:03.212Z,99.90
2019-03-11T23:08:33.805Z,99.90
2019-03-11T23:11:04.698Z,99.90
2019-03-11T23:13:35.323Z,99.90
2019-03-11T23:16:05.738Z,99.90
2019-03-11T23:18:36.324Z,99.90
2019-03-11T23:21:06.905Z,99.90
2019-03-11T23:23:37.312Z,99.90
2019-03-11T23:26:07.947Z,99.90
2019-03-11T23:28:41.794Z,99.90
2019-03-11T23:31:14.976Z,99.90
2019-03-11T23:33:45.614Z,99.90
2019-03-11T23:36:19.103Z,99.90
2019-03-11T23:38:49.620Z,99.90
2019-03-11T23:41:20.162Z,99.90
2019-03-11T23:43:50.775Z,99.90
2019-03-11T23:46:21.242Z,99.90
2019-03-11T23:48:51.769Z,99.90
2019-03-11T23:51:22.201Z,99.90
2019-03-11T23:53:52.876Z,99.90
2019-03-11T23:56:24.700Z,99.90
2019-03-11T23:58:55.111Z,99.90
